FKYS/NSI METAR and TAF weather

Enter ICAO airport designator
Station Type Date Time Source
FKYS METAR 2019/04/23 07:00 UTC NOAA

FKYS 230700Z 21003KT 180V250 9999 BKN007 24/22 Q1016 BECMG BKN011


Station Type Date Time Source
FKYS Decoded METAR 2019/04/23 07:00 UTC NOAA

Yaounde, Cameroon (FKYS) 03-50N 011-31E 760M
Apr 23, 2019 - 03:00 AM EDT / 2019.04.23 0700 UTC
Wind: from the SSW (210 degrees) at 3 MPH (3 KT) (direction variable):0
Visibility: greater than 7 mile(s):0
Sky conditions: mostly cloudy
Temperature: 75 F (24 C)
Dew Point: 71 F (22 C)
Relative Humidity: 88%
Pressure (altimeter): 30.00 in. Hg (1016 hPa)
ob: FKYS 230700Z 21003KT 180V250 9999 BKN007 24/22 Q1016 BECMG BKN011
cycle: 7

Station Type Date Time Source
FKYS TAF 2019/04/25 18:36 UTC NOAA

TAF TAF FKYS 251700Z 2518/2618 26005KT 8000 -TSRA BKN006 FEW016CB PROB30 2522/2601 3000 TSRA
BECMG 2600/2602 NSW
TEMPO 2602/2606 2500 BR

Example: see airport list